sensor_id;sensor_type;location;lat;lon;timestamp;pressure;altitude;pressure_sealevel;temperature;humidity
40155;BME280;25875;48.202;16.334;2024-03-02T00:00:15;98324.47;;;8.12;79.66
40155;BME280;25875;48.202;16.334;2024-03-02T00:02:44;98324.56;;;8.10;79.79
40155;BME280;25875;48.202;16.334;2024-03-02T00:05:14;98326.25;;;8.11;79.42
40155;BME280;25875;48.202;16.334;2024-03-02T00:07:43;98258.69;;;7.66;79.57
40155;BME280;25875;48.202;16.334;2024-03-02T00:10:11;98325.97;;;8.01;80.17
40155;BME280;25875;48.202;16.334;2024-03-02T00:12:41;98325.13;;;8.01;80.31
40155;BME280;25875;48.202;16.334;2024-03-02T00:15:31;98320.69;;;8.01;80.06
40155;BME280;25875;48.202;16.334;2024-03-02T00:18:04;98325.03;;;8.02;79.81
40155;BME280;25875;48.202;16.334;2024-03-02T00:20:32;98310.16;;;8.01;79.92
40155;BME280;25875;48.202;16.334;2024-03-02T00:23:03;98317.31;;;7.99;80.13
40155;BME280;25875;48.202;16.334;2024-03-02T00:25:37;98309.56;;;7.96;79.86
40155;BME280;25875;48.202;16.334;2024-03-02T00:28:04;98311.47;;;7.94;80.21
40155;BME280;25875;48.202;16.334;2024-03-02T00:33:32;98324.66;;;7.94;80.25
40155;BME280;25875;48.202;16.334;2024-03-02T00:36:01;98317.09;;;7.88;80.64
40155;BME280;25875;48.202;16.334;2024-03-02T00:38:29;98320.31;;;7.93;80.36
40155;BME280;25875;48.202;16.334;2024-03-02T00:40:56;98316.91;;;7.91;80.51
40155;BME280;25875;48.202;16.334;2024-03-02T00:43:43;98315.41;;;7.87;80.67
40155;BME280;25875;48.202;16.334;2024-03-02T00:46:15;98324.84;;;7.91;80.21
40155;BME280;25875;48.202;16.334;2024-03-02T00:48:53;98311.84;;;7.88;80.30
40155;BME280;25875;48.202;16.334;2024-03-02T00:51:23;98313.25;;;7.80;81.03
40155;BME280;25875;48.202;16.334;2024-03-02T00:53:51;98315.78;;;7.81;80.86
40155;BME280;25875;48.202;16.334;2024-03-02T00:56:18;98316.53;;;7.83;80.77
40155;BME280;25875;48.202;16.334;2024-03-02T00:58:46;98309.56;;;7.82;80.75
40155;BME280;25875;48.202;16.334;2024-03-02T01:01:13;98314.09;;;7.80;80.81
40155;BME280;25875;48.202;16.334;2024-03-02T01:03:40;98301.00;;;7.79;80.87
40155;BME280;25875;48.202;16.334;2024-03-02T01:06:07;98291.09;;;7.82;80.58
40155;BME280;25875;48.202;16.334;2024-03-02T01:08:36;98319.38;;;7.80;80.71
40155;BME280;25875;48.202;16.334;2024-03-02T01:11:03;98301.66;;;7.82;80.71
40155;BME280;25875;48.202;16.334;2024-03-02T01:13:30;98159.53;;;6.91;80.57
40155;BME280;25875;48.202;16.334;2024-03-02T01:15:57;98303.53;;;7.80;80.47
40155;BME280;25875;48.202;16.334;2024-03-02T01:18:23;98295.72;;;7.79;80.63
40155;BME280;25875;48.202;16.334;2024-03-02T01:20:50;98304.47;;;7.79;80.49
40155;BME280;25875;48.202;16.334;2024-03-02T01:23:18;98294.78;;;7.80;80.51
40155;BME280;25875;48.202;16.334;2024-03-02T01:25:47;98297.78;;;7.74;80.44
40155;BME280;25875;48.202;16.334;2024-03-02T01:28:14;98033.22;;;6.15;80.67
40155;BME280;25875;48.202;16.334;2024-03-02T01:30:41;98301.94;;;7.78;80.72
40155;BME280;25875;48.202;16.334;2024-03-02T01:33:08;98255.25;;;7.35;81.01
40155;BME280;25875;48.202;16.334;2024-03-02T01:35:34;98213.81;;;6.93;81.05
40155;BME280;25875;48.202;16.334;2024-03-02T01:38:01;98237.50;;;7.23;81.04
40155;BME280;25875;48.202;16.334;2024-03-02T01:40:28;98310.22;;;7.72;80.91
40155;BME280;25875;48.202;16.334;2024-03-02T01:42:56;98304.84;;;7.73;80.93
40155;BME280;25875;48.202;16.334;2024-03-02T01:45:23;98309.06;;;7.61;81.65
40155;BME280;25875;48.202;16.334;2024-03-02T01:47:50;98308.41;;;7.58;82.14
40155;BME280;25875;48.202;16.334;2024-03-02T01:50:24;98305.31;;;7.65;81.46
40155;BME280;25875;48.202;16.334;2024-03-02T01:52:51;98300.69;;;7.69;80.96
40155;BME280;25875;48.202;16.334;2024-03-02T01:55:18;98296.94;;;7.73;80.71
40155;BME280;25875;48.202;16.334;2024-03-02T01:57:46;98295.50;;;7.67;81.06
40155;BME280;25875;48.202;16.334;2024-03-02T02:00:15;98297.50;;;7.64;81.39
40155;BME280;25875;48.202;16.334;2024-03-02T02:02:42;98294.19;;;7.60;81.57
40155;BME280;25875;48.202;16.334;2024-03-02T02:05:09;98286.94;;;7.64;81.18
40155;BME280;25875;48.202;16.334;2024-03-02T02:07:36;98251.31;;;7.43;81.30
40155;BME280;25875;48.202;16.334;2024-03-02T02:10:03;98286.09;;;7.63;81.25
40155;BME280;25875;48.202;16.334;2024-03-02T02:12:30;98288.06;;;7.60;81.50
40155;BME280;25875;48.202;16.334;2024-03-02T02:14:57;98285.78;;;7.54;81.77
40155;BME280;25875;48.202;16.334;2024-03-02T02:17:25;98255.06;;;7.38;81.79
40155;BME280;25875;48.202;16.334;2024-03-02T02:19:52;98282.84;;;7.44;82.20
40155;BME280;25875;48.202;16.334;2024-03-02T02:22:20;98278.53;;;7.43;82.38
40155;BME280;25875;48.202;16.334;2024-03-02T02:24:46;98276.16;;;7.38;82.51
40155;BME280;25875;48.202;16.334;2024-03-02T02:27:13;98278.72;;;7.40;82.41
40155;BME280;25875;48.202;16.334;2024-03-02T02:29:40;98271.84;;;7.37;82.42
40155;BME280;25875;48.202;16.334;2024-03-02T02:32:07;98265.34;;;7.43;81.99
40155;BME280;25875;48.202;16.334;2024-03-02T02:34:34;98261.38;;;7.36;82.38
40155;BME280;25875;48.202;16.334;2024-03-02T02:37:00;98264.00;;;7.36;82.19
40155;BME280;25875;48.202;16.334;2024-03-02T02:39:29;98260.06;;;7.43;81.84
40155;BME280;25875;48.202;16.334;2024-03-02T02:41:55;98260.91;;;7.44;81.63
40155;BME280;25875;48.202;16.334;2024-03-02T02:44:22;98258.38;;;7.42;81.80
40155;BME280;25875;48.202;16.334;2024-03-02T02:46:49;98264.41;;;7.44;81.47
40155;BME280;25875;48.202;16.334;2024-03-02T02:49:16;98237.31;;;7.26;81.22
40155;BME280;25875;48.202;16.334;2024-03-02T02:51:42;98264.50;;;7.43;81.27
40155;BME280;25875;48.202;16.334;2024-03-02T02:54:09;98267.59;;;7.19;82.45
40155;BME280;25875;48.202;16.334;2024-03-02T02:56:37;98262.81;;;7.26;82.63
40155;BME280;25875;48.202;16.334;2024-03-02T02:59:03;98259.44;;;7.24;82.40
40155;BME280;25875;48.202;16.334;2024-03-02T03:01:30;97782.19;;;4.41;81.75
40155;BME280;25875;48.202;16.334;2024-03-02T03:03:56;98262.56;;;7.30;81.82
40155;BME280;25875;48.202;16.334;2024-03-02T03:06:23;98264.09;;;7.34;81.46
40155;BME280;25875;48.202;16.334;2024-03-02T03:08:50;98265.03;;;7.33;81.38
40155;BME280;25875;48.202;16.334;2024-03-02T03:11:16;98271.91;;;7.36;81.07
40155;BME280;25875;48.202;16.334;2024-03-02T03:13:44;98053.94;;;6.05;81.15
40155;BME280;25875;48.202;16.334;2024-03-02T03:16:11;98250.00;;;7.20;81.05
40155;BME280;25875;48.202;16.334;2024-03-02T03:18:38;98257.47;;;7.27;81.11
40155;BME280;25875;48.202;16.334;2024-03-02T03:21:05;98266.41;;;7.25;81.03
40155;BME280;25875;48.202;16.334;2024-03-02T03:23:31;98263.84;;;7.23;80.97
40155;BME280;25875;48.202;16.334;2024-03-02T03:25:58;98147.22;;;6.46;80.85
40155;BME280;25875;48.202;16.334;2024-03-02T03:28:24;98266.75;;;7.19;80.94
40155;BME280;25875;48.202;16.334;2024-03-02T03:30:51;98273.56;;;7.23;80.71
40155;BME280;25875;48.202;16.334;2024-03-02T03:33:18;98274.56;;;7.20;80.44
40155;BME280;25875;48.202;16.334;2024-03-02T03:35:44;98272.47;;;7.11;80.34
40155;BME280;25875;48.202;16.334;2024-03-02T03:38:11;98272.47;;;7.11;80.45
40155;BME280;25875;48.202;16.334;2024-03-02T03:40:38;98268.25;;;7.09;80.45
40155;BME280;25875;48.202;16.334;2024-03-02T03:43:04;98272.34;;;6.98;80.74
40155;BME280;25875;48.202;16.334;2024-03-02T03:45:31;98277.69;;;6.97;80.92
40155;BME280;25875;48.202;16.334;2024-03-02T03:47:59;98274.97;;;6.98;80.82
40155;BME280;25875;48.202;16.334;2024-03-02T03:50:26;98282.03;;;6.98;80.80
40155;BME280;25875;48.202;16.334;2024-03-02T03:52:53;98283.31;;;6.91;81.22
40155;BME280;25875;48.202;16.334;2024-03-02T03:55:19;98256.38;;;6.70;81.62
40155;BME280;25875;48.202;16.334;2024-03-02T03:57:46;98298.38;;;6.89;81.56
40155;BME280;25875;48.202;16.334;2024-03-02T04:00:13;98292.72;;;6.79;82.01
40155;BME280;25875;48.202;16.334;2024-03-02T04:02:40;98289.00;;;6.67;82.90
40155;BME280;25875;48.202;16.334;2024-03-02T04:05:08;98285.25;;;6.71;82.68
40155;BME280;25875;48.202;16.334;2024-03-02T04:07:36;98258.78;;;6.59;82.62
40155;BME280;25875;48.202;16.334;2024-03-02T04:10:07;98279.91;;;6.73;82.59
40155;BME280;25875;48.202;16.334;2024-03-02T04:12:35;98241.19;;;6.59;82.03
40155;BME280;25875;48.202;16.334;2024-03-02T04:15:02;98280.34;;;6.81;81.85
40155;BME280;25875;48.202;16.334;2024-03-02T04:17:30;98278.72;;;6.79;81.73
40155;BME280;25875;48.202;16.334;2024-03-02T04:19:57;98289.09;;;6.82;81.68
40155;BME280;25875;48.202;16.334;2024-03-02T04:22:26;98287.63;;;6.76;81.62
40155;BME280;25875;48.202;16.334;2024-03-02T04:24:52;98294.47;;;6.80;81.61
40155;BME280;25875;48.202;16.334;2024-03-02T04:27:19;98305.13;;;6.77;81.60
40155;BME280;25875;48.202;16.334;2024-03-02T04:29:46;98306.06;;;6.76;81.61
40155;BME280;25875;48.202;16.334;2024-03-02T04:32:12;98305.13;;;6.77;81.40
40155;BME280;25875;48.202;16.334;2024-03-02T04:34:39;98293.94;;;6.73;81.51
40155;BME280;25875;48.202;16.334;2024-03-02T04:37:06;98296.47;;;6.75;81.56
40155;BME280;25875;48.202;16.334;2024-03-02T04:39:34;98306.84;;;6.78;81.45
40155;BME280;25875;48.202;16.334;2024-03-02T04:42:01;98311.84;;;6.67;81.81
40155;BME280;25875;48.202;16.334;2024-03-02T04:44:28;98309.97;;;6.69;81.78
40155;BME280;25875;48.202;16.334;2024-03-02T04:46:54;98310.75;;;6.71;81.56
40155;BME280;25875;48.202;16.334;2024-03-02T04:49:21;98312.53;;;6.70;81.72
40155;BME280;25875;48.202;16.334;2024-03-02T04:51:48;98305.47;;;6.71;81.56
40155;BME280;25875;48.202;16.334;2024-03-02T04:54:14;98308.88;;;6.73;81.44
40155;BME280;25875;48.202;16.334;2024-03-02T04:56:42;98321.19;;;6.72;81.29
40155;BME280;25875;48.202;16.334;2024-03-02T04:59:15;98330.13;;;6.70;81.21
40155;BME280;25875;48.202;16.334;2024-03-02T05:01:41;98335.03;;;6.60;81.58
40155;BME280;25875;48.202;16.334;2024-03-02T05:04:08;98338.34;;;6.48;82.07
40155;BME280;25875;48.202;16.334;2024-03-02T05:06:37;98335.38;;;6.38;82.69
40155;BME280;25875;48.202;16.334;2024-03-02T05:09:04;98334.34;;;6.41;82.73
40155;BME280;25875;48.202;16.334;2024-03-02T05:11:31;98346.16;;;6.34;83.08
40155;BME280;25875;48.202;16.334;2024-03-02T05:14:29;98338.31;;;6.17;84.26
40155;BME280;25875;48.202;16.334;2024-03-02T05:16:56;98349.09;;;6.28;83.73
40155;BME280;25875;48.202;16.334;2024-03-02T05:19:23;98343.84;;;6.28;83.72
40155;BME280;25875;48.202;16.334;2024-03-02T05:21:50;98342.59;;;6.35;83.31
40155;BME280;25875;48.202;16.334;2024-03-02T05:24:17;98354.03;;;6.34;83.17
40155;BME280;25875;48.202;16.334;2024-03-02T05:26:44;98356.66;;;6.34;83.67
40155;BME280;25875;48.202;16.334;2024-03-02T05:29:10;98346.56;;;6.26;84.35
40155;BME280;25875;48.202;16.334;2024-03-02T05:31:38;98349.19;;;6.26;84.37
40155;BME280;25875;48.202;16.334;2024-03-02T05:34:05;98354.44;;;6.26;84.48
40155;BME280;25875;48.202;16.334;2024-03-02T05:36:32;98352.34;;;6.33;84.13
40155;BME280;25875;48.202;16.334;2024-03-02T05:38:59;98348.94;;;6.31;84.19
40155;BME280;25875;48.202;16.334;2024-03-02T05:41:25;98353.19;;;6.33;84.12
40155;BME280;25875;48.202;16.334;2024-03-02T05:43:52;98342.81;;;6.30;83.88
40155;BME280;25875;48.202;16.334;2024-03-02T05:46:19;98350.22;;;6.39;83.93
40155;BME280;25875;48.202;16.334;2024-03-02T05:48:47;98357.34;;;6.37;84.05
40155;BME280;25875;48.202;16.334;2024-03-02T05:51:13;98365.00;;;6.42;83.84
40155;BME280;25875;48.202;16.334;2024-03-02T05:53:40;98356.59;;;6.35;84.83
40155;BME280;25875;48.202;16.334;2024-03-02T05:56:07;98290.44;;;5.77;85.50
40155;BME280;25875;48.202;16.334;2024-03-02T05:58:34;98364.09;;;6.10;87.03
40155;BME280;25875;48.202;16.334;2024-03-02T06:01:15;98361.81;;;6.20;86.28
40155;BME280;25875;48.202;16.334;2024-03-02T06:03:42;98369.91;;;5.99;86.69
40155;BME280;25875;48.202;16.334;2024-03-02T06:06:10;98375.78;;;6.04;86.46
40155;BME280;25875;48.202;16.334;2024-03-02T06:08:38;98315.91;;;5.59;87.26
40155;BME280;25875;48.202;16.334;2024-03-02T06:11:04;98368.06;;;5.84;86.84
40155;BME280;25875;48.202;16.334;2024-03-02T06:13:31;98394.97;;;6.06;86.09
40155;BME280;25875;48.202;16.334;2024-03-02T06:15:57;98395.56;;;6.12;85.45
40155;BME280;25875;48.202;16.334;2024-03-02T06:18:24;98392.47;;;6.21;84.61
40155;BME280;25875;48.202;16.334;2024-03-02T06:20:51;98388.13;;;6.20;84.60
40155;BME280;25875;48.202;16.334;2024-03-02T06:23:19;98386.44;;;6.19;84.77
40155;BME280;25875;48.202;16.334;2024-03-02T06:25:45;98380.41;;;6.17;84.91
40155;BME280;25875;48.202;16.334;2024-03-02T06:28:12;98394.31;;;6.19;84.64
40155;BME280;25875;48.202;16.334;2024-03-02T06:30:40;98390.00;;;6.18;84.61
40155;BME280;25875;48.202;16.334;2024-03-02T06:33:07;98390.41;;;6.10;84.77
40155;BME280;25875;48.202;16.334;2024-03-02T06:35:34;98327.25;;;5.77;84.70
40155;BME280;25875;48.202;16.334;2024-03-02T06:38:00;98267.84;;;5.40;84.37
40155;BME280;25875;48.202;16.334;2024-03-02T06:40:28;98378.69;;;6.16;84.35
40155;BME280;25875;48.202;16.334;2024-03-02T06:42:55;98385.06;;;6.12;84.44
40155;BME280;25875;48.202;16.334;2024-03-02T06:45:23;98358.47;;;6.00;84.03
40155;BME280;25875;48.202;16.334;2024-03-02T06:47:50;98387.34;;;6.18;84.00
40155;BME280;25875;48.202;16.334;2024-03-02T06:50:16;98387.34;;;6.18;83.78
40155;BME280;25875;48.202;16.334;2024-03-02T06:52:43;98397.03;;;6.17;83.99
40155;BME280;25875;48.202;16.334;2024-03-02T06:55:10;98386.75;;;6.13;84.01
40155;BME280;25875;48.202;16.334;2024-03-02T06:57:38;98391.25;;;6.10;84.22
40155;BME280;25875;48.202;16.334;2024-03-02T07:00:05;98393.72;;;6.14;83.95
40155;BME280;25875;48.202;16.334;2024-03-02T07:02:34;98396.13;;;6.01;84.75
40155;BME280;25875;48.202;16.334;2024-03-02T07:05:01;98370.38;;;5.90;84.30
40155;BME280;25875;48.202;16.334;2024-03-02T07:07:29;98400.38;;;6.03;84.86
40155;BME280;25875;48.202;16.334;2024-03-02T07:09:57;98374.09;;;5.86;84.61
40155;BME280;25875;48.202;16.334;2024-03-02T07:12:24;98400.22;;;6.06;84.96
40155;BME280;25875;48.202;16.334;2024-03-02T07:14:52;98392.25;;;6.08;85.00
40155;BME280;25875;48.202;16.334;2024-03-02T07:17:36;98394.56;;;6.14;84.82
40155;BME280;25875;48.202;16.334;2024-03-02T07:20:03;98339.16;;;5.84;84.86
40155;BME280;25875;48.202;16.334;2024-03-02T07:22:30;98394.28;;;6.03;86.32
40155;BME280;25875;48.202;16.334;2024-03-02T07:24:56;98395.38;;;5.99;86.81
40155;BME280;25875;48.202;16.334;2024-03-02T07:27:23;98400.47;;;6.02;86.57
40155;BME280;25875;48.202;16.334;2024-03-02T07:29:52;98407.44;;;6.03;86.38
40155;BME280;25875;48.202;16.334;2024-03-02T07:32:19;98408.44;;;6.00;87.07
40155;BME280;25875;48.202;16.334;2024-03-02T07:34:46;98419.81;;;6.01;87.06
40155;BME280;25875;48.202;16.334;2024-03-02T07:37:12;98413.78;;;5.99;87.17
40155;BME280;25875;48.202;16.334;2024-03-02T07:39:39;98415.31;;;6.03;86.83
40155;BME280;25875;48.202;16.334;2024-03-02T07:42:06;98421.50;;;6.02;86.79
40155;BME280;25875;48.202;16.334;2024-03-02T07:44:33;98422.44;;;6.01;86.96
40155;BME280;25875;48.202;16.334;2024-03-02T07:47:01;98415.72;;;5.95;87.65
40155;BME280;25875;48.202;16.334;2024-03-02T07:49:28;98418.34;;;5.95;87.72
40155;BME280;25875;48.202;16.334;2024-03-02T07:51:55;98419.81;;;6.01;87.51
40155;BME280;25875;48.202;16.334;2024-03-02T07:54:22;98421.50;;;6.02;87.60
40155;BME280;25875;48.202;16.334;2024-03-02T07:56:49;98419.72;;;6.02;87.27
40155;BME280;25875;48.202;16.334;2024-03-02T07:59:17;98421.66;;;5.99;87.27
40155;BME280;25875;48.202;16.334;2024-03-02T08:01:44;98423.38;;;6.00;87.47
40155;BME280;25875;48.202;16.334;2024-03-02T08:04:12;98428.69;;;5.98;87.34
40155;BME280;25875;48.202;16.334;2024-03-02T08:06:39;98426.75;;;6.02;86.80
40155;BME280;25875;48.202;16.334;2024-03-02T08:09:06;98433.81;;;6.01;86.70
40155;BME280;25875;48.202;16.334;2024-03-02T08:11:35;98429.16;;;6.06;86.23
40155;BME280;25875;48.202;16.334;2024-03-02T08:14:02;98396.06;;;5.85;86.15
40155;BME280;25875;48.202;16.334;2024-03-02T08:16:29;98352.41;;;5.65;85.81
40155;BME280;25875;48.202;16.334;2024-03-02T08:18:56;98430.78;;;6.09;86.17
40155;BME280;25875;48.202;16.334;2024-03-02T08:21:25;98430.94;;;6.06;86.69
40155;BME280;25875;48.202;16.334;2024-03-02T08:23:56;98433.94;;;6.16;86.19
40155;BME280;25875;48.202;16.334;2024-03-02T08:26:22;98435.41;;;6.21;85.55
40155;BME280;25875;48.202;16.334;2024-03-02T08:28:49;98380.81;;;5.92;85.56
40155;BME280;25875;48.202;16.334;2024-03-02T08:31:16;98425.28;;;6.14;86.20
40155;BME280;25875;48.202;16.334;2024-03-02T08:33:42;98428.84;;;6.13;86.65
40155;BME280;25875;48.202;16.334;2024-03-02T08:36:09;98434.56;;;6.21;86.03
40155;BME280;25875;48.202;16.334;2024-03-02T08:38:40;98430.75;;;6.26;85.60
40155;BME280;25875;48.202;16.334;2024-03-02T08:41:07;98437.88;;;6.24;85.71
40155;BME280;25875;48.202;16.334;2024-03-02T08:43:34;98431.53;;;6.28;85.54
40155;BME280;25875;48.202;16.334;2024-03-02T08:46:01;98422.69;;;6.29;85.39
40155;BME280;25875;48.202;16.334;2024-03-02T08:48:28;98419.22;;;6.29;85.48
40155;BME280;25875;48.202;16.334;2024-03-02T08:50:55;98375.00;;;6.02;85.15
40155;BME280;25875;48.202;16.334;2024-03-02T08:53:23;98427.72;;;6.34;85.41
40155;BME280;25875;48.202;16.334;2024-03-02T08:55:51;98415.16;;;6.39;84.90
40155;BME280;25875;48.202;16.334;2024-03-02T08:58:20;98419.34;;;6.43;85.03
40155;BME280;25875;48.202;16.334;2024-03-02T09:00:47;98421.81;;;6.46;84.86
40155;BME280;25875;48.202;16.334;2024-03-02T09:03:14;98183.81;;;5.05;84.70
40155;BME280;25875;48.202;16.334;2024-03-02T09:05:42;98432.19;;;6.49;84.81
40155;BME280;25875;48.202;16.334;2024-03-02T09:08:10;98388.41;;;6.31;84.84
40155;BME280;25875;48.202;16.334;2024-03-02T09:10:36;98419.63;;;6.54;85.00
40155;BME280;25875;48.202;16.334;2024-03-02T09:13:06;98419.69;;;6.53;85.25
40155;BME280;25875;48.202;16.334;2024-03-02T09:15:33;98424.47;;;6.62;84.72
40155;BME280;25875;48.202;16.334;2024-03-02T09:18:03;98420.06;;;6.62;84.93
40155;BME280;25875;48.202;16.334;2024-03-02T09:20:29;98392.16;;;6.42;85.12
40155;BME280;25875;48.202;16.334;2024-03-02T09:22:56;98362.53;;;6.39;85.25
40155;BME280;25875;48.202;16.334;2024-03-02T09:25:23;98412.19;;;6.78;84.97
40155;BME280;25875;48.202;16.334;2024-03-02T09:27:50;98411.88;;;6.84;85.23
40155;BME280;25875;48.202;16.334;2024-03-02T09:30:19;98408.56;;;6.81;86.03
40155;BME280;25875;48.202;16.334;2024-03-02T09:32:45;98409.06;;;6.87;85.81
40155;BME280;25875;48.202;16.334;2024-03-02T09:35:12;98368.34;;;6.61;86.54
40155;BME280;25875;48.202;16.334;2024-03-02T09:37:40;98408.81;;;6.92;86.65
40155;BME280;25875;48.202;16.334;2024-03-02T09:40:08;98418.84;;;7.01;86.56
40155;BME280;25875;48.202;16.334;2024-03-02T09:42:36;98414.94;;;7.08;85.79
40155;BME280;25875;48.202;16.334;2024-03-02T09:45:05;98413.81;;;7.12;85.59
40155;BME280;25875;48.202;16.334;2024-03-02T09:47:38;98407.97;;;7.07;86.28
40155;BME280;25875;48.202;16.334;2024-03-02T09:50:07;98400.13;;;7.21;85.72
40155;BME280;25875;48.202;16.334;2024-03-02T09:52:33;98403.63;;;7.22;85.53
40155;BME280;25875;48.202;16.334;2024-03-02T09:55:01;98401.06;;;7.20;86.28
40155;BME280;25875;48.202;16.334;2024-03-02T09:57:30;98388.81;;;7.19;86.24
40155;BME280;25875;48.202;16.334;2024-03-02T09:59:57;98398.66;;;7.31;85.31
40155;BME280;25875;48.202;16.334;2024-03-02T10:02:25;98365.97;;;7.20;85.23
40155;BME280;25875;48.202;16.334;2024-03-02T10:04:53;98387.19;;;7.48;85.01
40155;BME280;25875;48.202;16.334;2024-03-02T10:07:20;98391.34;;;7.52;84.88
40155;BME280;25875;48.202;16.334;2024-03-02T10:09:48;98377.50;;;7.49;84.70
40155;BME280;25875;48.202;16.334;2024-03-02T10:12:17;98370.56;;;7.62;84.56
40155;BME280;25875;48.202;16.334;2024-03-02T10:14:45;98356.66;;;7.44;84.49
40155;BME280;25875;48.202;16.334;2024-03-02T10:17:14;98293.69;;;6.94;85.52
40155;BME280;25875;48.202;16.334;2024-03-02T10:19:43;98383.47;;;7.66;85.56
40155;BME280;25875;48.202;16.334;2024-03-02T10:22:11;98346.44;;;7.54;84.97
40155;BME280;25875;48.202;16.334;2024-03-02T10:24:40;98380.56;;;7.71;85.53
40155;BME280;25875;48.202;16.334;2024-03-02T10:27:08;98383.69;;;7.78;85.52
40155;BME280;25875;48.202;16.334;2024-03-02T10:29:39;98379.28;;;7.78;85.38
40155;BME280;25875;48.202;16.334;2024-03-02T10:32:08;98349.66;;;7.59;85.79
40155;BME280;25875;48.202;16.334;2024-03-02T10:34:36;98324.50;;;7.53;85.60
40155;BME280;25875;48.202;16.334;2024-03-02T10:37:04;98372.41;;;7.90;84.89
40155;BME280;25875;48.202;16.334;2024-03-02T10:39:34;98324.22;;;7.58;84.94
40155;BME280;25875;48.202;16.334;2024-03-02T10:42:02;98350.25;;;7.78;85.08
40155;BME280;25875;48.202;16.334;2024-03-02T10:44:30;98373.19;;;7.92;85.02
40155;BME280;25875;48.202;16.334;2024-03-02T10:47:00;98375.16;;;8.02;84.52
40155;BME280;25875;48.202;16.334;2024-03-02T10:49:29;98366.69;;;8.12;84.72
40155;BME280;25875;48.202;16.334;2024-03-02T10:51:57;98262.53;;;7.46;84.86
40155;BME280;25875;48.202;16.334;2024-03-02T10:54:24;98364.44;;;8.06;85.61
40155;BME280;25875;48.202;16.334;2024-03-02T10:56:59;98360.47;;;8.13;85.28
40155;BME280;25875;48.202;16.334;2024-03-02T10:59:33;98366.41;;;8.16;85.97
40155;BME280;25875;48.202;16.334;2024-03-02T11:02:13;98291.09;;;7.82;85.14
40155;BME280;25875;48.202;16.334;2024-03-02T11:04:42;98362.38;;;8.25;85.54
40155;BME280;25875;48.202;16.334;2024-03-02T11:07:10;98032.31;;;6.30;85.34
40155;BME280;25875;48.202;16.334;2024-03-02T11:09:41;97886.13;;;4.59;85.13
40155;BME280;25875;48.202;16.334;2024-03-02T11:12:13;98358.41;;;8.32;86.62
40155;BME280;25875;48.202;16.334;2024-03-02T11:14:43;98228.56;;;7.70;85.49
40155;BME280;25875;48.202;16.334;2024-03-02T11:17:10;98058.97;;;6.54;84.85
40155;BME280;25875;48.202;16.334;2024-03-02T11:19:38;98354.34;;;8.55;85.98
40155;BME280;25875;48.202;16.334;2024-03-02T11:22:06;98295.91;;;8.04;86.46
40155;BME280;25875;48.202;16.334;2024-03-02T11:24:34;97716.03;;;4.81;85.85
40155;BME280;25875;48.202;16.334;2024-03-02T11:27:03;98321.25;;;8.49;85.62
40155;BME280;25875;48.202;16.334;2024-03-02T11:29:46;98345.53;;;8.68;86.01
40155;BME280;25875;48.202;16.334;2024-03-02T11:32:19;98307.00;;;8.38;85.63
40155;BME280;25875;48.202;16.334;2024-03-02T11:34:48;98200.56;;;7.82;85.43
40155;BME280;25875;48.202;16.334;2024-03-02T11:37:16;98349.78;;;8.71;85.29
40155;BME280;25875;48.202;16.334;2024-03-02T11:39:44;98357.50;;;8.74;84.96
40155;BME280;25875;48.202;16.334;2024-03-02T11:42:12;98356.38;;;8.78;84.83
40155;BME280;25875;48.202;16.334;2024-03-02T11:44:42;97285.63;;;2.34;83.53
40155;BME280;25875;48.202;16.334;2024-03-02T11:47:13;98314.72;;;8.55;84.36
40155;BME280;25875;48.202;16.334;2024-03-02T11:49:41;98363.66;;;8.75;84.46
40155;BME280;25875;48.202;16.334;2024-03-02T11:52:09;98298.06;;;8.40;84.37
40155;BME280;25875;48.202;16.334;2024-03-02T11:54:37;98120.41;;;7.13;84.26
40155;BME280;25875;48.202;16.334;2024-03-02T11:57:06;98366.47;;;8.72;84.18
40155;BME280;25875;48.202;16.334;2024-03-02T11:59:33;97929.88;;;6.13;83.87
40155;BME280;25875;48.202;16.334;2024-03-02T12:02:00;98009.34;;;6.48;83.97
40155;BME280;25875;48.202;16.334;2024-03-02T12:04:29;98354.78;;;8.76;84.06
40155;BME280;25875;48.202;16.334;2024-03-02T12:06:59;98279.88;;;8.35;83.86
40155;BME280;25875;48.202;16.334;2024-03-02T12:09:26;98203.38;;;7.93;84.21
40155;BME280;25875;48.202;16.334;2024-03-02T12:12:04;98147.66;;;7.42;83.84
40155;BME280;25875;48.202;16.334;2024-03-02T12:14:32;98354.66;;;8.91;83.88
40155;BME280;25875;48.202;16.334;2024-03-02T12:16:59;98013.13;;;6.72;83.22
40155;BME280;25875;48.202;16.334;2024-03-02T12:19:26;98215.97;;;8.16;83.51
40155;BME280;25875;48.202;16.334;2024-03-02T12:21:57;98354.16;;;8.99;83.57
40155;BME280;25875;48.202;16.334;2024-03-02T12:24:27;97834.03;;;5.89;83.24
40155;BME280;25875;48.202;16.334;2024-03-02T12:26:55;98351.97;;;9.06;83.52
40155;BME280;25875;48.202;16.334;2024-03-02T12:29:23;98172.84;;;8.03;83.47
40155;BME280;25875;48.202;16.334;2024-03-02T12:31:51;98002.50;;;6.74;83.26
40155;BME280;25875;48.202;16.334;2024-03-02T12:34:19;98346.78;;;9.04;83.92
40155;BME280;25875;48.202;16.334;2024-03-02T12:36:46;98104.78;;;7.67;83.78
40155;BME280;25875;48.202;16.334;2024-03-02T12:39:17;98347.50;;;9.20;83.87
40155;BME280;25875;48.202;16.334;2024-03-02T12:41:45;97943.66;;;6.89;83.19
40155;BME280;25875;48.202;16.334;2024-03-02T12:44:12;97367.44;;;3.44;82.99
40155;BME280;25875;48.202;16.334;2024-03-02T12:46:39;98345.44;;;9.38;83.39
40155;BME280;25875;48.202;16.334;2024-03-02T12:49:08;98213.28;;;8.45;82.99
40155;BME280;25875;48.202;16.334;2024-03-02T12:51:36;98339.56;;;9.47;82.63
40155;BME280;25875;48.202;16.334;2024-03-02T12:54:03;98337.34;;;9.41;82.59
40155;BME280;25875;48.202;16.334;2024-03-02T12:56:35;98345.28;;;9.41;82.40
40155;BME280;25875;48.202;16.334;2024-03-02T12:59:01;98346.00;;;9.43;82.49
40155;BME280;25875;48.202;16.334;2024-03-02T13:01:28;98333.66;;;9.44;82.41
40155;BME280;25875;48.202;16.334;2024-03-02T13:03:55;98173.72;;;8.57;81.73
40155;BME280;25875;48.202;16.334;2024-03-02T13:06:23;98098.13;;;8.02;81.38